Time;durP1;ratioP1;P1;durP2;ratioP2;P2;SDS_P1;SDS_P2;PMS_P1;PMS_P2;Temp;Humidity;BMP_temperature;BMP_pressure;BME280_temperature;BME280_humidity;BME280_pressure;Samples;Min_cycle;Max_cycle;Signal;HPM_P1;HPM_P2
2023/01/27 00:00:55;;;;;;;27.50;13.50;;;;;;;;;;5023708;28;20061;-86
2023/01/27 00:03:20;;;;;;;25.83;13.70;;;;;;;;;;5014600;28;20041;-88
2023/01/27 00:05:46;;;;;;;25.48;12.75;;;;;;;;;;5035901;28;20276;-87
2023/01/27 00:08:11;;;;;;;29.50;14.68;;;;;;;;;;5016316;28;20051;-87
2023/01/27 00:10:36;;;;;;;29.77;15.68;;;;;;;;;;5017148;28;20033;-86
2023/01/27 00:15:46;;;;;;;33.10;16.80;;;;;;;;;;5035298;28;20272;-87
2023/01/27 00:18:11;;;;;;;31.67;15.77;;;;;;;;;;5013996;28;20033;-87
2023/01/27 00:26:07;;;;;;;25.52;12.57;;;;;;;;;;5033885;28;20072;-88
2023/01/27 00:28:32;;;;;;;27.08;13.35;;;;;;;;;;5017103;28;20037;-87
2023/01/27 00:30:58;;;;;;;24.20;12.18;;;;;;;;;;5030607;28;20029;-85
2023/01/27 00:33:26;;;;;;;22.58;11.93;;;;;;;;;;5021031;28;20037;-87
2023/01/27 00:35:58;;;;;;;22.00;10.68;;;;;;;;;;5016788;28;20488;-86
2023/01/27 00:38:23;;;;;;;23.60;11.48;;;;;;;;;;5016093;28;20052;-85
2023/01/27 00:41:14;;;;;;;27.95;14.45;;;;;;;;;;5033194;28;20488;-87
2023/01/27 00:43:33;;;;;;;25.88;12.40;;;;;;;;;;5034622;28;20560;-86
2023/01/27 00:45:59;;;;;;;28.87;14.77;;;;;;;;;;5016152;28;20069;-86
2023/01/27 00:48:24;;;;;;;26.27;13.20;;;;;;;;;;5014971;28;20500;-87
2023/01/27 00:50:51;;;;;;;30.43;15.10;;;;;;;;;;5032963;28;20090;-87
2023/01/27 00:53:16;;;;;;;24.25;12.13;;;;;;;;;;5032164;28;20447;-87
2023/01/27 00:55:41;;;;;;;21.23;11.27;;;;;;;;;;5015776;28;20045;-86
2023/01/27 00:58:07;;;;;;;23.83;11.90;;;;;;;;;;5034232;28;20449;-88
2023/01/27 01:00:32;;;;;;;25.53;12.77;;;;;;;;;;5033973;28;20087;-86
2023/01/27 01:02:57;;;;;;;25.60;13.13;;;;;;;;;;5033991;28;20034;-85
2023/01/27 01:05:22;;;;;;;25.63;12.52;;;;;;;;;;5028323;28;20069;-87
2023/01/27 01:07:48;;;;;;;29.77;15.47;;;;;;;;;;5016111;28;20112;-85
2023/01/27 01:10:13;;;;;;;28.30;14.53;;;;;;;;;;5033791;28;20052;-86
2023/01/27 01:12:38;;;;;;;39.17;17.85;;;;;;;;;;5011038;28;20090;-86
2023/01/27 01:15:03;;;;;;;33.50;15.43;;;;;;;;;;5031115;28;20033;-87
2023/01/27 01:17:28;;;;;;;26.42;13.38;;;;;;;;;;5031707;28;20041;-85
2023/01/27 01:19:54;;;;;;;29.17;15.03;;;;;;;;;;5029487;28;20041;-87
2023/01/27 01:22:19;;;;;;;33.83;16.83;;;;;;;;;;5012629;28;20046;-87
2023/01/27 01:24:44;;;;;;;36.27;17.03;;;;;;;;;;5008789;28;20276;-87
2023/01/27 01:27:09;;;;;;;33.60;15.77;;;;;;;;;;5013485;28;20091;-84
2023/01/27 01:29:34;;;;;;;22.97;11.80;;;;;;;;;;5030203;28;20147;-84
2023/01/27 01:32:00;;;;;;;26.67;13.50;;;;;;;;;;5013496;28;20039;-84
2023/01/27 01:34:25;;;;;;;25.92;12.45;;;;;;;;;;5012330;28;20038;-84
2023/01/27 01:36:50;;;;;;;23.95;11.85;;;;;;;;;;5016081;28;20049;-88
2023/01/27 01:39:15;;;;;;;24.13;11.97;;;;;;;;;;5030704;28;20068;-88
2023/01/27 01:41:41;;;;;;;22.53;11.77;;;;;;;;;;5025604;28;20057;-87
2023/01/27 01:44:22;;;;;;;21.42;10.60;;;;;;;;;;5017461;28;20038;-87
2023/01/27 01:46:48;;;;;;;20.90;10.48;;;;;;;;;;5003778;28;20501;-87
2023/01/27 01:49:13;;;;;;;27.50;13.20;;;;;;;;;;5012257;28;20047;-87
2023/01/27 01:51:40;;;;;;;26.38;13.30;;;;;;;;;;5031991;28;20065;-85
2023/01/27 01:54:24;;;;;;;22.88;11.63;;;;;;;;;;5030099;28;20033;-83
2023/01/27 01:56:59;;;;;;;20.30;10.82;;;;;;;;;;5030615;28;20049;-88
2023/01/27 01:59:25;;;;;;;25.48;13.00;;;;;;;;;;5013146;28;20049;-89
2023/01/27 02:01:52;;;;;;;23.55;13.10;;;;;;;;;;5014147;28;20049;-85
2023/01/27 02:04:22;;;;;;;25.23;12.43;;;;;;;;;;5021187;28;20635;-89
2023/01/27 02:06:51;;;;;;;23.00;11.77;;;;;;;;;;5020750;28;20037;-88
2023/01/27 02:09:17;;;;;;;23.05;11.32;;;;;;;;;;5009492;28;20053;-88
2023/01/27 02:11:43;;;;;;;25.48;12.52;;;;;;;;;;5013863;28;20030;-87
2023/01/27 02:14:09;;;;;;;26.00;13.32;;;;;;;;;;5027867;28;20033;-88
2023/01/27 02:16:35;;;;;;;24.27;12.88;;;;;;;;;;5008490;28;20041;-87
2023/01/27 02:19:00;;;;;;;23.98;12.68;;;;;;;;;;5012406;28;20040;-88
2023/01/27 02:21:25;;;;;;;23.73;12.07;;;;;;;;;;5027550;28;20052;-85
2023/01/27 02:24:00;;;;;;;28.03;14.00;;;;;;;;;;5026581;28;20029;-85
2023/01/27 02:26:30;;;;;;;23.10;13.23;;;;;;;;;;5011574;28;20049;-87
2023/01/27 02:29:01;;;;;;;23.63;13.00;;;;;;;;;;5022834;28;20029;-89
2023/01/27 02:31:26;;;;;;;25.80;13.57;;;;;;;;;;5027571;28;20107;-86
2023/01/27 02:33:54;;;;;;;22.17;12.20;;;;;;;;;;5025994;28;20037;-87
2023/01/27 02:36:19;;;;;;;23.20;12.60;;;;;;;;;;5010946;28;20041;-85
2023/01/27 02:38:46;;;;;;;29.40;15.17;;;;;;;;;;5020981;28;20034;-87
2023/01/27 02:41:19;;;;;;;30.02;15.55;;;;;;;;;;5006389;28;20295;-86
2023/01/27 02:43:44;;;;;;;34.05;17.08;;;;;;;;;;5006948;28;20060;-83
2023/01/27 02:46:09;;;;;;;30.23;14.57;;;;;;;;;;5025946;28;20057;-86
2023/01/27 02:48:34;;;;;;;29.57;14.43;;;;;;;;;;5032957;28;20315;-88
2023/01/27 02:51:00;;;;;;;27.33;14.15;;;;;;;;;;5029249;28;20367;-85
2023/01/27 02:53:25;;;;;;;24.90;12.93;;;;;;;;;;5023933;28;20060;-87
2023/01/27 02:55:50;;;;;;;26.50;13.83;;;;;;;;;;5028147;28;20124;-85
2023/01/27 02:58:15;;;;;;;23.45;12.52;;;;;;;;;;5036673;28;20280;-87
2023/01/27 03:00:41;;;;;;;25.23;13.50;;;;;;;;;;5016995;28;20124;-88
2023/01/27 03:03:06;;;;;;;31.38;16.13;;;;;;;;;;5043709;28;20044;-86
2023/01/27 03:05:32;;;;;;;29.85;15.82;;;;;;;;;;5011953;28;20103;-87
2023/01/27 03:07:57;;;;;;;26.83;14.07;;;;;;;;;;5017977;28;20037;-87
2023/01/27 03:10:22;;;;;;;26.08;14.10;;;;;;;;;;5009429;28;20037;-86
2023/01/27 03:12:47;;;;;;;24.50;13.23;;;;;;;;;;5032429;28;20124;-87
2023/01/27 03:18:12;;;;;;;27.38;14.80;;;;;;;;;;5023207;28;20184;-86
2023/01/27 03:20:38;;;;;;;27.60;14.13;;;;;;;;;;5032940;28;20049;-86
2023/01/27 03:23:03;;;;;;;25.45;13.55;;;;;;;;;;5021968;28;20547;-87
2023/01/27 03:25:28;;;;;;;28.85;15.27;;;;;;;;;;5008028;28;20045;-87
2023/01/27 03:27:54;;;;;;;25.40;12.63;;;;;;;;;;5012290;28;20045;-86
2023/01/27 03:30:19;;;;;;;31.30;15.95;;;;;;;;;;5013608;28;20128;-86
2023/01/27 03:32:47;;;;;;;27.47;14.53;;;;;;;;;;5029487;28;20121;-87
2023/01/27 03:35:14;;;;;;;26.20;14.15;;;;;;;;;;5011020;28;20057;-87
2023/01/27 03:48:35;;;;;;;24.58;12.88;;;;;;;;;;5030444;28;20100;-88
2023/01/27 03:51:02;;;;;;;28.05;14.75;;;;;;;;;;5003604;28;20042;-85
2023/01/27 03:53:27;;;;;;;26.23;13.60;;;;;;;;;;5010068;28;20034;-87
2023/01/27 03:55:52;;;;;;;26.80;14.67;;;;;;;;;;5017889;28;20040;-87
2023/01/27 03:58:20;;;;;;;24.30;12.65;;;;;;;;;;5016864;28;20037;-87
2023/01/27 04:00:48;;;;;;;26.38;13.35;;;;;;;;;;5031148;28;20038;-86
2023/01/27 04:08:45;;;;;;;24.17;12.52;;;;;;;;;;5030061;28;20172;-86
2023/01/27 04:13:55;;;;;;;20.23;11.25;;;;;;;;;;5032258;28;20696;-86
2023/01/27 04:16:27;;;;;;;23.40;12.03;;;;;;;;;;5029451;28;20061;-87
2023/01/27 04:18:52;;;;;;;22.70;12.90;;;;;;;;;;5024598;28;20547;-87
2023/01/27 04:21:18;;;;;;;25.23;13.57;;;;;;;;;;5031303;28;20060;-88
2023/01/27 04:23:43;;;;;;;23.85;12.57;;;;;;;;;;5006315;28;20300;-87
2023/01/27 04:26:08;;;;;;;26.27;13.35;;;;;;;;;;5013056;28;20113;-87
2023/01/27 04:28:33;;;;;;;22.53;11.80;;;;;;;;;;5016866;28;20119;-87
2023/01/27 04:30:59;;;;;;;19.43;10.37;;;;;;;;;;5030132;28;20041;-86
2023/01/27 04:33:24;;;;;;;19.85;10.57;;;;;;;;;;5011591;28;20041;-88
2023/01/27 04:35:50;;;;;;;19.03;10.03;;;;;;;;;;5031514;28;20041;-88
2023/01/27 04:38:15;;;;;;;19.63;10.68;;;;;;;;;;5014621;28;20059;-88
2023/01/27 04:40:40;;;;;;;22.17;11.90;;;;;;;;;;5016394;28;20719;-88
2023/01/27 04:43:05;;;;;;;24.65;12.70;;;;;;;22.42;100.00;87210.38;5034177;28;20041;-86
2023/01/27 04:45:31;;;;;;;26.70;13.20;;;;;;;;;;5015997;28;20037;-86
2023/01/27 04:47:56;;;;;;;18.58;9.98;;;;;;;;;;5011541;28;20496;-88
2023/01/27 04:50:21;;;;;;;20.10;11.23;;;;;;;;;;5033650;28;20045;-87
2023/01/27 04:52:46;;;;;;;22.02;11.00;;;;;;;;;;5016435;28;20086;-87
2023/01/27 04:55:11;;;;;;;24.53;12.57;;;;;;;;;;5034169;28;20038;-88
2023/01/27 04:57:37;;;;;;;24.13;12.37;;;;;;;;;;5015782;28;20187;-86
2023/01/27 05:00:05;;;;;;;21.58;11.05;;;;;;;;;;5007876;28;20034;-89
2023/01/27 05:02:30;;;;;;;24.33;12.82;;;;;;;;;;5033679;28;20225;-88
2023/01/27 05:04:56;;;;;;;24.42;13.10;;;;;;;;;;5016747;28;20053;-87
2023/01/27 05:07:22;;;;;;;23.58;12.00;;;;;;;;;;5016691;28;20042;-87
2023/01/27 05:09:47;;;;;;;22.10;11.13;;;;;;;;;;5016266;28;20063;-87
2023/01/27 05:12:12;;;;;;;23.47;11.23;;;;;;;;;;5023255;28;20138;-88
2023/01/27 05:14:37;;;;;;;21.23;10.80;;;;;;;;;;5010994;28;20041;-88
2023/01/27 05:17:02;;;;;;;19.87;9.97;;;;;;;;;;5032121;28;20093;-87
2023/01/27 05:19:27;;;;;;;21.47;11.13;;;;;;;;;;5031961;28;20045;-86
2023/01/27 05:21:52;;;;;;;19.33;10.43;;;;;;;;;;5015478;28;20065;-88
2023/01/27 05:24:18;;;;;;;18.80;9.87;;;;;;;;;;5014176;28;20043;-86
2023/01/27 05:26:43;;;;;;;22.07;12.23;;;;;;;;;;5015800;28;20037;-88
2023/01/27 05:29:08;;;;;;;18.97;9.90;;;;;;;;;;5026053;28;20041;-87
2023/01/27 05:31:33;;;;;;;18.73;10.13;;;;;;;;;;5025065;28;20571;-88
2023/01/27 05:34:01;;;;;;;16.00;9.25;;;;;;;;;;5014489;28;20037;-85
2023/01/27 05:36:27;;;;;;;19.70;9.40;;;;;;;;;;5010904;28;20053;-87
2023/01/27 05:38:53;;;;;;;19.75;10.25;;;;;;;;;;5031309;28;20029;-87
2023/01/27 05:41:18;;;;;;;20.88;10.75;;;;;;;;;;5006552;28;20041;-87
2023/01/27 05:43:44;;;;;;;21.50;11.02;;;;;;;;;;5007732;28;20103;-87
2023/01/27 05:46:15;;;;;;;16.55;8.57;;;;;;;22.38;100.00;120372.59;5031108;28;20432;-87
2023/01/27 05:48:42;;;;;;;18.70;10.43;;;;;;;;;;5012655;28;20037;-87
2023/01/27 05:51:07;;;;;;;20.08;10.20;;;;;;;;;;5010903;28;20071;-87
2023/01/27 05:53:33;;;;;;;23.42;12.52;;;;;;;;;;5030195;28;20030;-87
2023/01/27 05:55:58;;;;;;;22.77;11.57;;;;;;;;;;5028889;28;20042;-87
2023/01/27 05:58:24;;;;;;;17.25;9.68;;;;;;;;;;5021772;28;20038;-87
2023/01/27 06:00:50;;;;;;;17.08;9.10;;;;;;;;;;5019546;28;20042;-89
2023/01/27 06:03:15;;;;;;;19.73;10.20;;;;;;;;;;5029807;28;20044;-86
2023/01/27 06:05:51;;;;;;;19.58;10.75;;;;;;;;;;5014460;28;20548;-88
2023/01/27 06:08:16;;;;;;;21.42;10.35;;;;;;;;;;5011857;28;20048;-86
2023/01/27 06:10:41;;;;;;;19.73;9.97;;;;;;;;;;5013850;28;20041;-87
2023/01/27 06:13:07;;;;;;;18.43;8.93;;;;;;;22.38;100.00;54034.94;5012406;28;20107;-87
2023/01/27 06:15:32;;;;;;;22.08;11.45;;;;;;;;;;5025161;28;20430;-87
2023/01/27 06:17:57;;;;;;;21.40;11.93;;;;;;;;;;5031134;28;20083;-89
2023/01/27 06:20:22;;;;;;;21.20;10.98;;;;;;;;;;5014000;28;20037;-88
2023/01/27 06:22:49;;;;;;;20.73;10.32;;;;;;;;;;5030539;28;20036;-89
2023/01/27 06:25:14;;;;;;;20.10;10.75;;;;;;;22.38;0.00;54035.44;5029131;28;20068;-88
2023/01/27 06:27:39;;;;;;;21.33;10.95;;;;;;;;;;5025253;28;20030;-88
2023/01/27 06:30:05;;;;;;;23.63;12.73;;;;;;;;;;5029241;28;20033;-87
2023/01/27 06:32:30;;;;;;;24.33;12.65;;;;;;;;;;5015999;28;20057;-87
2023/01/27 06:34:55;;;;;;;26.57;13.87;;;;;;;;;;5032297;28;20419;-87
2023/01/27 06:37:21;;;;;;;21.35;11.23;;;;;;;;;;5035455;28;20087;-86
2023/01/27 06:39:46;;;;;;;20.83;11.30;;;;;;;;;;5028983;28;20047;-88
2023/01/27 06:42:11;;;;;;;21.93;11.00;;;;;;;;;;5016506;28;20038;-88
2023/01/27 06:44:36;;;;;;;20.87;11.53;;;;;;;;;;5020817;28;20108;-88
2023/01/27 06:47:01;;;;;;;20.73;11.15;;;;;;;;;;5029542;28;20052;-87
2023/01/27 06:49:27;;;;;;;19.67;12.30;;;;;;;;;;5027416;28;20443;-88
2023/01/27 06:51:52;;;;;;;16.00;8.77;;;;;;;;;;5019623;28;20635;-88
2023/01/27 06:54:17;;;;;;;15.73;8.60;;;;;;;;;;5010472;28;20293;-87
2023/01/27 06:56:42;;;;;;;15.47;8.37;;;;;;;;;;5018525;28;20540;-87
2023/01/27 06:59:07;;;;;;;22.77;12.23;;;;;;;;;;5019794;28;20029;-86
2023/01/27 07:01:34;;;;;;;21.50;11.40;;;;;;;22.38;100.00;159928.53;5036479;28;20103;-88
2023/01/27 07:03:59;;;;;;;24.20;13.25;;;;;;;;;;5015022;28;20042;-88
2023/01/27 07:06:24;;;;;;;23.38;12.38;;;;;;;;;;5029778;28;20053;-86
2023/01/27 07:08:49;;;;;;;23.40;11.97;;;;;;;;;;5032550;28;20065;-88
2023/01/27 07:11:15;;;;;;;26.98;11.35;;;;;;;;;;5014410;28;20072;-88
2023/01/27 07:13:40;;;;;;;23.37;12.57;;;;;;;;;;5017748;28;20038;-87
2023/01/27 07:16:05;;;;;;;20.97;11.77;;;;;;;;;;5016816;28;20056;-83
2023/01/27 07:18:30;;;;;;;;;;;;;;;;;;5033442;28;20041;-87
2023/01/27 07:20:55;;;;;;;21.05;11.25;;;;;;;;;;5015411;28;20403;-88
2023/01/27 07:23:21;;;;;;;20.57;12.70;;;;;;;;;;5030467;28;20422;-86
2023/01/27 07:25:49;;;;;;;17.33;10.10;;;;;;;;;;5027745;28;20025;-87
2023/01/27 07:28:14;;;;;;;18.70;10.38;;;;;;;;;;5035677;28;20288;-88
2023/01/27 07:30:40;;;;;;;16.98;8.82;;;;;;;;;;5011789;28;20044;-86
2023/01/27 07:33:05;;;;;;;16.58;8.95;;;;;;;;;;5017114;28;20033;-86
2023/01/27 07:35:30;;;;;;;19.45;12.07;;;;;;;;;;5022343;28;20526;-87
2023/01/27 07:37:56;;;;;;;19.17;10.47;;;;;;;;;;5012315;28;20115;-87
2023/01/27 07:40:21;;;;;;;17.00;11.17;;;;;;;;;;5010090;28;20437;-87
2023/01/27 07:42:46;;;;;;;20.80;12.00;;;;;;;;;;5031835;28;20091;-88
2023/01/27 07:45:12;;;;;;;18.57;10.73;;;;;;;;;;5015956;28;20347;-89
2023/01/27 07:47:37;;;;;;;19.13;10.13;;;;;;;;;;5031019;28;20334;-89
2023/01/27 07:50:02;;;;;;;18.83;10.45;;;;;;;;;;5013068;28;20057;-85
2023/01/27 07:52:27;;;;;;;19.40;11.00;;;;;;;;;;5006862;28;20512;-88
2023/01/27 07:54:52;;;;;;;19.10;10.57;;;;;;;;;;5033249;28;20438;-88
2023/01/27 07:57:17;;;;;;;25.13;11.43;;;;;;;;;;5013967;28;20041;-86
2023/01/27 07:59:43;;;;;;;23.97;12.40;;;;;;;;;;5017136;28;20045;-86
2023/01/27 08:02:09;;;;;;;18.90;10.53;;;;;;;;;;5031067;28;20045;-83
2023/01/27 08:04:34;;;;;;;22.30;11.80;;;;;;;;;;5008023;28;20049;-87
2023/01/27 08:07:00;;;;;;;16.58;9.82;;;;;;;;;;5017089;28;20052;-88
2023/01/27 08:09:25;;;;;;;18.73;10.95;;;;;;;;;;5016000;28;20034;-87
2023/01/27 08:11:50;;;;;;;18.97;10.87;;;;;;;;;;5013355;28;20045;-88
2023/01/27 08:14:16;;;;;;;15.03;8.90;;;;;;;;;;5020181;28;20045;-88
2023/01/27 08:16:41;;;;;;;14.77;8.40;;;;;;;;;;5031135;28;20045;-87
2023/01/27 08:19:06;;;;;;;20.03;10.30;;;;;;;;;;5019950;28;20296;-87
2023/01/27 08:21:31;;;;;;;16.13;8.40;;;;;;;;;;5037031;28;20296;-88
2023/01/27 08:23:57;;;;;;;15.00;8.88;;;;;;;;;;5016945;28;20182;-86
2023/01/27 08:26:22;;;;;;;20.75;10.32;;;;;;;;;;5012775;28;20040;-87
2023/01/27 08:28:47;;;;;;;19.87;11.40;;;;;;;;;;5015073;28;20040;-87
2023/01/27 08:31:14;;;;;;;20.17;10.57;;;;;;;;;;5032772;28;20340;-87
2023/01/27 08:33:40;;;;;;;18.33;10.43;;;;;;;;;;5015703;28;20037;-87
2023/01/27 08:36:06;;;;;;;17.40;9.55;;;;;;;;;;5030339;28;20466;-82
2023/01/27 08:38:33;;;;;;;16.73;9.10;;;;;;;;;;5032840;28;20034;-86
2023/01/27 08:41:01;;;;;;;18.88;10.20;;;;;;;;;;5016645;28;20057;-87
2023/01/27 08:43:26;;;;;;;18.67;9.63;;;;;;;;;;5029224;28;20065;-87
2023/01/27 08:45:52;;;;;;;13.27;7.90;;;;;;;;;;5034271;28;20041;-87
2023/01/27 08:48:17;;;;;;;17.67;9.43;;;;;;;;;;5018476;28;20107;-86
2023/01/27 08:50:42;;;;;;;14.60;8.27;;;;;;;;;;5017273;28;20276;-84
2023/01/27 08:53:08;;;;;;;19.70;11.00;;;;;;;;;;5032796;28;20037;-86
2023/01/27 08:55:33;;;;;;;17.77;9.90;;;;;;;;;;5016253;28;20084;-83
2023/01/27 08:57:58;;;;;;;16.17;9.00;;;;;;;;;;5031326;28;20077;-84
2023/01/27 09:00:24;;;;;;;15.38;9.05;;;;;;;;;;5016064;28;20033;-86
2023/01/27 09:02:50;;;;;;;15.90;9.30;;;;;;;;;;5017757;28;20374;-84
2023/01/27 09:05:16;;;;;;;15.75;9.05;;;;;;;;;;5013087;28;20105;-86
2023/01/27 09:07:41;;;;;;;13.98;7.85;;;;;;;;;;5026945;28;20040;-85
2023/01/27 09:10:07;;;;;;;14.93;9.07;;;;;;;;;;5017868;28;20132;-87
2023/01/27 09:12:32;;;;;;;13.50;7.72;;;;;;;;;;5010710;28;20064;-88
2023/01/27 09:14:57;;;;;;;14.27;7.93;;;;;;;;;;5016471;28;20041;-85
2023/01/27 09:17:23;;;;;;;14.17;7.63;;;;;;;;;;5006210;28;20038;-88
2023/01/27 09:19:49;;;;;;;13.00;7.47;;;;;;;;;;5033128;28;20349;-86
2023/01/27 09:22:14;;;;;;;12.25;6.45;;;;;;;;;;5035223;28;20511;-87
2023/01/27 09:24:39;;;;;;;13.33;7.40;;;;;;;;;;5036896;28;20041;-86
2023/01/27 09:27:04;;;;;;;13.30;7.67;;;;;;;;;;5016674;28;20299;-87
2023/01/27 09:29:30;;;;;;;10.97;6.80;;;;;;;;;;5030312;28;20054;-86
2023/01/27 09:31:55;;;;;;;11.20;6.65;;;;;;;;;;5011047;28;20292;-88
2023/01/27 09:34:20;;;;;;;11.20;6.57;;;;;;;;;;5036131;28;20034;-87
2023/01/27 09:39:19;;;;;;;13.43;7.40;;;;;;;;;;5006107;28;20042;-84
2023/01/27 09:41:44;;;;;;;13.73;7.97;;;;;;;;;;5012357;28;20171;-84
2023/01/27 09:44:30;;;;;;;12.60;7.77;;;;;;;;;;5009996;28;20107;-84
2023/01/27 09:47:10;;;;;;;13.07;8.23;;;;;;;;;;4989137;28;20065;-83
2023/01/27 09:49:51;;;;;;;12.07;6.97;;;;;;;;;;4988123;28;20054;-85
2023/01/27 09:52:25;;;;;;;16.35;7.88;;;;;;;;;;5005252;28;20041;-83
2023/01/27 09:55:03;;;;;;;12.38;7.10;;;;;;;;;;4989287;28;20077;-83
2023/01/27 09:57:48;;;;;;;12.98;7.72;;;;;;;;;;5010247;28;20071;-85
2023/01/27 10:00:19;;;;;;;13.93;7.50;;;;;;;;;;4994578;28;20057;-84
2023/01/27 10:02:47;;;;;;;10.75;6.93;;;;;;;;;;4989113;28;20053;-84
2023/01/27 10:05:31;;;;;;;12.52;6.97;;;;;;;;;;4998029;28;20042;-83
2023/01/27 10:07:59;;;;;;;13.05;7.32;;;;;;;;;;4996999;28;20034;-84
2023/01/27 10:10:30;;;;;;;13.05;7.40;;;;;;;;;;5010227;28;20049;-86
2023/01/27 10:13:15;;;;;;;13.10;7.57;;;;;;;;;;4992787;28;20042;-84
2023/01/27 10:15:46;;;;;;;11.73;6.63;;;;;;;;;;5010786;28;20629;-83
2023/01/27 10:18:22;;;;;;;12.20;7.35;;;;;;;;;;5015637;28;20546;-84
2023/01/27 10:20:59;;;;;;;12.57;7.43;;;;;;;;;;5012997;28;20038;-86
2023/01/27 10:23:44;;;;;;;11.32;6.68;;;;;;;;;;5016970;28;20046;-83
2023/01/27 10:26:18;;;;;;;12.55;6.78;;;;;;;;;;5015904;28;20026;-84
2023/01/27 10:28:46;;;;;;;10.70;6.68;;;;;;;;;;5013646;28;20395;-86
2023/01/27 10:31:11;;;;;;;;;;;;;;;;;;5013100;28;20034;-83
2023/01/27 10:33:40;;;;;;;13.18;6.63;;;;;;;;;;4992320;28;19925;-83
2023/01/27 10:36:26;;;;;;;9.20;6.78;;;;;;;;;;5008503;28;20863;-83
2023/01/27 10:38:51;;;;;;;11.35;6.80;;;;;;;;;;5004930;28;20045;-83
2023/01/27 10:41:25;;;;;;;12.10;6.50;;;;;;;;;;5008249;28;20038;-83
2023/01/27 10:44:09;;;;;;;10.73;6.38;;;;;;;;;;5009845;28;20038;-83
2023/01/27 10:46:49;;;;;;;10.80;6.57;;;;;;;;;;5014398;28;20041;-83
2023/01/27 10:49:23;;;;;;;11.63;5.72;;;;;;;;;;5010791;28;20046;-83
2023/01/27 10:51:54;;;;;;;9.60;5.55;;;;;;;;;;5007395;28;20113;-84
2023/01/27 10:54:34;;;;;;;10.55;6.10;;;;;;;;;;5009990;28;20070;-84
2023/01/27 10:57:18;;;;;;;10.80;6.20;;;;;;;;;;4995677;28;20038;-83
2023/01/27 11:00:13;;;;;;;9.88;6.18;;;;;;;;;;5008671;28;20045;-84
2023/01/27 11:02:41;;;;;;;11.52;6.15;;;;;;;;;;4973023;28;20700;-84
2023/01/27 11:05:30;;;;;;;11.07;6.53;;;;;;;;;;5007952;28;20041;-85
2023/01/27 11:07:58;;;;;;;9.00;5.63;;;;;;;;;;4981758;28;20045;-85
2023/01/27 11:10:24;;;;;;;10.05;5.43;;;;;;;;;;4996042;28;20049;-85
2023/01/27 11:12:52;;;;;;;9.60;5.95;;;;;;;;;;4991017;28;20609;-85
2023/01/27 11:15:26;;;;;;;11.00;5.97;;;;;;;;;;5012712;28;20050;-85
2023/01/27 11:17:56;;;;;;;7.82;5.00;;;;;;;;;;5013465;28;20136;-85
2023/01/27 11:20:21;;;;;;;8.70;5.55;;;;;;;;;;4992280;28;20085;-85
2023/01/27 11:22:53;;;;;;;10.77;5.73;;;;;;;;;;5012688;28;20435;-84
2023/01/27 11:25:27;;;;;;;8.10;4.65;;;;;;;;;;5018969;28;20092;-84
2023/01/27 11:28:13;;;;;;;8.80;4.78;;;;;;;;;;5002120;28;20612;-85
2023/01/27 11:30:45;;;;;;;9.23;4.78;;;;;;;;;;5011552;28;20038;-85
2023/01/27 11:33:10;;;;;;;9.20;5.30;;;;;;;;;;4996056;28;20451;-85
2023/01/27 11:35:36;;;;;;;9.87;5.33;;;;;;;;;;4992652;28;20053;-85
2023/01/27 11:38:01;;;;;;;9.15;4.88;;;;;;;;;;4994088;28;20288;-84
2023/01/27 11:40:34;;;;;;;7.60;5.13;;;;;;;;;;5007667;28;20088;-85
2023/01/27 11:42:59;;;;;;;8.00;5.05;;;;;;;;;;4999077;28;20105;-85
2023/01/27 11:45:25;;;;;;;6.72;4.18;;;;;;;;;;5016659;28;20077;-85
2023/01/27 11:47:52;;;;;;;8.43;5.10;;;;;;;;;;4996449;28;20413;-88
2023/01/27 11:50:26;;;;;;;7.07;4.25;;;;;;;;;;4994407;28;20717;-85
2023/01/27 11:52:57;;;;;;;6.95;4.05;;;;;;;;;;4998170;28;20041;-86
2023/01/27 11:55:24;;;;;;;6.63;4.10;;;;;;;;;;4991066;28;20038;-85
2023/01/27 11:57:51;;;;;;;6.20;3.78;;;;;;;;;;5010911;28;20079;-85
2023/01/27 12:00:40;;;;;;;5.78;3.55;;;;;;;;;;5009708;28;20398;-85
2023/01/27 12:03:05;;;;;;;5.28;3.35;;;;;;;;;;4987787;28;20507;-84
2023/01/27 12:05:32;;;;;;;7.57;3.42;;;;;;;;;;4996554;28;20053;-84
2023/01/27 12:07:58;;;;;;;;;;;;;;;;;;5010129;28;20033;-85
2023/01/27 12:10:24;;;;;;;;;;;;;;;;;;4996788;28;20300;-84
2023/01/27 12:12:49;;;;;;;;;;;;;;;;;;5011062;28;19926;-83
2023/01/27 12:15:14;;;;;;;;;;;;;;;;;;4996452;28;20043;-88
2023/01/27 12:17:39;;;;;;;;;;;;;;;;;;5020599;28;19921;-85
2023/01/27 12:20:17;;;;;;;5.20;3.27;;;;;;;;;;5022195;28;19913;-86
2023/01/27 12:22:47;;;;;;;6.82;4.15;;;;;;;;;;4992176;28;20058;-83
2023/01/27 12:25:26;;;;;;;5.57;3.20;;;;;;;;;;4993186;28;20081;-83
2023/01/27 12:27:53;;;;;;;5.85;3.45;;;;;;;;;;4994563;28;20042;-84
2023/01/27 12:30:28;;;;;;;5.15;3.13;;;;;;;;;;4994271;28;20084;-83
2023/01/27 12:32:54;;;;;;;6.20;3.80;;;;;;;;;;4994488;28;20037;-83
2023/01/27 12:35:19;;;;;;;6.25;3.80;;;;;;;;;;4993304;28;20507;-84
2023/01/27 12:37:44;;;;;;;7.47;4.27;;;;;;;;;;4996048;28;20042;-84
2023/01/27 12:40:20;;;;;;;6.97;3.85;;;;;;;;;;5008579;28;20282;-83
2023/01/27 12:42:52;;;;;;;6.32;3.88;;;;;;;;;;5010382;28;20038;-90
2023/01/27 12:45:22;;;;;;;8.00;5.07;;;;;;;;;;5015153;28;20033;-87
2023/01/27 12:47:58;;;;;;;7.13;4.40;;;;;;;;;;4992596;28;20033;-83
2023/01/27 12:50:24;;;;;;;6.65;4.30;;;;;;;;;;4994699;28;20591;-85
2023/01/27 12:53:08;;;;;;;7.43;4.53;;;;;;;;;;5012685;28;20129;-86
2023/01/27 12:55:38;;;;;;;6.80;3.95;;;;;;;;;;4992555;28;20054;-83
2023/01/27 12:58:03;;;;;;;6.00;3.95;;;;;;;;;;4994944;28;20123;-85
2023/01/27 13:00:29;;;;;;;6.63;4.05;;;;;;;;;;5011711;28;20599;-85
2023/01/27 13:03:04;;;;;;;6.50;3.90;;;;;;;;;;5012401;28;20033;-87
2023/01/27 13:05:34;;;;;;;6.45;3.95;;;;;;;;;;5003895;28;20121;-88
2023/01/27 13:08:00;;;;;;;6.68;4.45;;;;;;;;;;4994149;28;20072;-87
2023/01/27 13:10:26;;;;;;;6.40;4.22;;;;;;;;;;5010414;28;20038;-86
2023/01/27 13:12:56;;;;;;;6.13;4.00;;;;;;;;;;4995379;28;20410;-87
2023/01/27 13:15:27;;;;;;;61.70;29.23;;;;;;;;;;4997779;28;20061;-85
2023/01/27 13:17:56;;;;;;;27.67;15.02;;;;;;;;;;4999924;28;20034;-87
2023/01/27 13:20:38;;;;;;;10.02;6.65;;;;;;;;;;4994940;28;20046;-87
2023/01/27 13:23:12;;;;;;;4.60;3.30;;;;;;;;;;4994380;28;20065;-87
2023/01/27 13:25:39;;;;;;;6.80;4.20;;;;;;;;;;5011942;28;20073;-86
2023/01/27 13:28:06;;;;;;;6.50;4.18;;;;;;;;;;5011455;28;20579;-87
2023/01/27 13:30:41;;;;;;;9.18;6.65;;;;;;;;;;4991332;28;20068;-87
2023/01/27 13:33:16;;;;;;;12.65;6.18;;;;;;;;;;5004493;28;20099;-86
2023/01/27 13:35:46;;;;;;;4.80;3.60;;;;;;;;;;4994504;28;20507;-85
2023/01/27 13:38:18;;;;;;;12.13;5.82;;;;;;;;;;4994645;28;20053;-85
2023/01/27 13:40:44;;;;;;;9.15;5.20;;;;;;;;;;4992743;28;20065;-84
2023/01/27 13:43:12;;;;;;;9.73;4.90;;;;;;;;;;4996728;28;20041;-87
2023/01/27 13:45:58;;;;;;;22.25;12.52;;;;;;;;;;5002053;28;20049;-85
2023/01/27 13:48:31;;;;;;;9.50;5.03;;;;;;;4.16;nan;100627.41;5012843;28;20112;-83
2023/01/27 13:51:07;;;;;;;11.60;6.57;;;;;;;;;;5010155;28;20754;-85
2023/01/27 13:53:33;;;;;;;6.53;3.92;;;;;;;;;;5010254;28;20040;-84
2023/01/27 13:56:18;;;;;;;5.82;3.42;;;;;;;;;;5011480;28;20038;-85
2023/01/27 13:59:02;;;;;;;5.00;3.35;;;;;;;;;;4957714;28;20038;-85
2023/01/27 14:01:40;;;;;;;6.95;3.75;;;;;;;;;;4989970;28;20046;-85
2023/01/27 14:04:15;;;;;;;9.05;4.78;;;;;;;;;;5011376;28;20693;-84
2023/01/27 14:06:51;;;;;;;7.60;4.25;;;;;;;;;;4987721;28;20041;-85
2023/01/27 14:09:35;;;;;;;7.30;4.30;;;;;;;;;;5003349;28;20042;-86
2023/01/27 14:12:00;;;;;;;5.22;3.40;;;;;;;;;;4995619;28;20499;-85
2023/01/27 14:14:33;;;;;;;5.20;3.30;;;;;;;;;;5004214;28;20048;-86
2023/01/27 14:17:03;;;;;;;7.38;4.47;;;;;;;;;;5012898;28;20312;-85
2023/01/27 14:19:49;;;;;;;6.80;4.22;;;;;;;;;;4997267;28;20038;-86
2023/01/27 14:22:21;;;;;;;7.03;4.53;;;;;;;;;;4995106;28;20056;-85
2023/01/27 14:24:51;;;;;;;13.00;8.88;;;;;;;;;;5006610;28;20514;-86
2023/01/27 14:27:27;;;;;;;34.00;20.42;;;;;;;;;;4990106;28;20406;-87
2023/01/27 14:30:16;;;;;;;27.55;15.60;;;;;;;;;;5007428;28;20038;-86
2023/01/27 14:32:58;;;;;;;30.98;17.83;;;;;;;;;;4989278;28;20072;-84
2023/01/27 14:35:43;;;;;;;16.38;8.98;;;;;;;;;;5008540;28;20411;-85
2023/01/27 14:38:29;;;;;;;7.63;4.63;;;;;;;;;;4992977;28;20041;-86
2023/01/27 14:40:54;;;;;;;19.83;10.68;;;;;;;;;;4992721;28;20049;-85
2023/01/27 14:43:25;;;;;;;6.20;3.77;;;;;;;;;;4993047;28;20226;-86
2023/01/27 14:46:17;;;;;;;19.92;10.02;;;;;;;;;;4991268;28;20030;-83
2023/01/27 14:48:50;;;;;;;21.85;11.60;;;;;;;;;;4974782;28;20597;-85
2023/01/27 14:51:16;;;;;;;22.42;11.68;;;;;;;;;;4993251;28;20090;-85
2023/01/27 14:53:53;;;;;;;10.38;5.45;;;;;;;;;;5006252;28;20434;-85
2023/01/27 14:56:18;;;;;;;6.65;4.35;;;;;;;;;;5012419;28;20042;-85
2023/01/27 14:58:43;;;;;;;8.10;4.55;;;;;;;;;;5007163;28;20537;-85
2023/01/27 15:01:25;;;;;;;23.63;13.07;;;;;;;;;;4994353;28;20046;-85
2023/01/27 15:03:50;;;;;;;14.57;9.20;;;;;;;;;;5008426;28;20069;-84